sensor_id;sensor_type;location;lat;lon;timestamp;P1;durP1;ratioP1;P2;durP2;ratioP2
52724;SDS011;38621;52.830;6.914;2023-04-24T00:01:43;2.35;;;1.10;;
52724;SDS011;38621;52.830;6.914;2023-04-24T00:04:09;1.80;;;1.08;;
52724;SDS011;38621;52.830;6.914;2023-04-24T00:06:36;1.70;;;1.00;;
52724;SDS011;38621;52.830;6.914;2023-04-24T00:09:03;1.90;;;1.30;;
52724;SDS011;38621;52.830;6.914;2023-04-24T00:11:30;2.03;;;1.25;;
52724;SDS011;38621;52.830;6.914;2023-04-24T00:13:56;2.17;;;1.50;;
52724;SDS011;38621;52.830;6.914;2023-04-24T00:16:22;2.13;;;1.55;;
52724;SDS011;38621;52.830;6.914;2023-04-24T00:18:48;2.33;;;1.70;;
52724;SDS011;38621;52.830;6.914;2023-04-24T00:21:14;2.53;;;1.83;;
52724;SDS011;38621;52.830;6.914;2023-04-24T00:23:42;3.10;;;2.13;;
52724;SDS011;38621;52.830;6.914;2023-04-24T00:26:09;3.05;;;2.13;;
52724;SDS011;38621;52.830;6.914;2023-04-24T00:28:34;3.42;;;1.90;;
52724;SDS011;38621;52.830;6.914;2023-04-24T00:31:00;3.13;;;2.13;;
52724;SDS011;38621;52.830;6.914;2023-04-24T00:33:26;2.88;;;2.20;;
52724;SDS011;38621;52.830;6.914;2023-04-24T00:35:52;3.55;;;2.20;;
52724;SDS011;38621;52.830;6.914;2023-04-24T00:38:18;3.03;;;1.90;;
52724;SDS011;38621;52.830;6.914;2023-04-24T00:40:43;2.55;;;1.63;;
52724;SDS011;38621;52.830;6.914;2023-04-24T00:43:09;2.20;;;1.52;;
52724;SDS011;38621;52.830;6.914;2023-04-24T00:45:36;2.08;;;1.40;;
52724;SDS011;38621;52.830;6.914;2023-04-24T00:48:01;2.33;;;1.40;;
52724;SDS011;38621;52.830;6.914;2023-04-24T00:50:28;1.88;;;1.40;;
52724;SDS011;38621;52.830;6.914;2023-04-24T00:52:54;3.00;;;1.50;;
52724;SDS011;38621;52.830;6.914;2023-04-24T00:55:20;2.65;;;1.60;;
52724;SDS011;38621;52.830;6.914;2023-04-24T00:57:46;2.78;;;1.60;;
52724;SDS011;38621;52.830;6.914;2023-04-24T01:00:12;1.92;;;1.33;;
52724;SDS011;38621;52.830;6.914;2023-04-24T01:02:40;2.03;;;1.27;;
52724;SDS011;38621;52.830;6.914;2023-04-24T01:05:11;3.00;;;1.70;;
52724;SDS011;38621;52.830;6.914;2023-04-24T01:07:38;2.38;;;1.77;;
52724;SDS011;38621;52.830;6.914;2023-04-24T01:10:06;3.20;;;2.00;;
52724;SDS011;38621;52.830;6.914;2023-04-24T01:12:33;3.40;;;1.70;;
52724;SDS011;38621;52.830;6.914;2023-04-24T01:14:59;2.42;;;1.98;;
52724;SDS011;38621;52.830;6.914;2023-04-24T01:17:25;2.90;;;1.90;;
52724;SDS011;38621;52.830;6.914;2023-04-24T01:19:51;2.90;;;2.10;;
52724;SDS011;38621;52.830;6.914;2023-04-24T01:22:21;2.72;;;2.30;;
52724;SDS011;38621;52.830;6.914;2023-04-24T01:24:47;2.97;;;2.20;;
52724;SDS011;38621;52.830;6.914;2023-04-24T01:27:14;2.55;;;2.08;;
52724;SDS011;38621;52.830;6.914;2023-04-24T01:29:40;2.53;;;1.90;;
52724;SDS011;38621;52.830;6.914;2023-04-24T01:32:06;3.38;;;2.20;;
52724;SDS011;38621;52.830;6.914;2023-04-24T01:34:32;2.80;;;2.30;;
52724;SDS011;38621;52.830;6.914;2023-04-24T01:36:58;3.20;;;2.22;;
52724;SDS011;38621;52.830;6.914;2023-04-24T01:39:24;3.70;;;2.30;;
52724;SDS011;38621;52.830;6.914;2023-04-24T01:41:53;3.05;;;2.50;;
52724;SDS011;38621;52.830;6.914;2023-04-24T01:44:19;3.50;;;2.50;;
52724;SDS011;38621;52.830;6.914;2023-04-24T01:46:45;3.38;;;2.40;;
52724;SDS011;38621;52.830;6.914;2023-04-24T01:49:11;2.97;;;2.38;;
52724;SDS011;38621;52.830;6.914;2023-04-24T01:51:37;2.90;;;2.40;;
52724;SDS011;38621;52.830;6.914;2023-04-24T01:54:03;4.10;;;2.80;;
52724;SDS011;38621;52.830;6.914;2023-04-24T01:56:29;3.50;;;2.55;;
52724;SDS011;38621;52.830;6.914;2023-04-24T01:58:55;4.32;;;2.63;;
52724;SDS011;38621;52.830;6.914;2023-04-24T02:01:23;4.25;;;3.08;;
52724;SDS011;38621;52.830;6.914;2023-04-24T02:03:49;4.72;;;3.53;;
52724;SDS011;38621;52.830;6.914;2023-04-24T02:06:15;4.75;;;3.28;;
52724;SDS011;38621;52.830;6.914;2023-04-24T02:08:40;4.22;;;3.25;;
52724;SDS011;38621;52.830;6.914;2023-04-24T02:11:08;6.00;;;3.85;;
52724;SDS011;38621;52.830;6.914;2023-04-24T02:13:34;6.07;;;3.90;;
52724;SDS011;38621;52.830;6.914;2023-04-24T02:15:59;6.20;;;3.78;;
52724;SDS011;38621;52.830;6.914;2023-04-24T02:18:26;7.65;;;4.68;;
52724;SDS011;38621;52.830;6.914;2023-04-24T02:20:51;5.65;;;4.38;;
52724;SDS011;38621;52.830;6.914;2023-04-24T02:23:18;6.82;;;4.80;;
52724;SDS011;38621;52.830;6.914;2023-04-24T02:25:43;5.45;;;4.32;;
52724;SDS011;38621;52.830;6.914;2023-04-24T02:28:09;5.57;;;4.50;;
52724;SDS011;38621;52.830;6.914;2023-04-24T02:30:35;6.32;;;3.88;;
52724;SDS011;38621;52.830;6.914;2023-04-24T02:33:00;7.00;;;4.80;;
52724;SDS011;38621;52.830;6.914;2023-04-24T02:35:26;9.63;;;4.45;;
52724;SDS011;38621;52.830;6.914;2023-04-24T02:37:52;5.30;;;4.05;;
52724;SDS011;38621;52.830;6.914;2023-04-24T02:40:17;5.43;;;4.38;;
52724;SDS011;38621;52.830;6.914;2023-04-24T02:42:43;7.18;;;5.43;;
52724;SDS011;38621;52.830;6.914;2023-04-24T02:45:09;6.10;;;4.40;;
52724;SDS011;38621;52.830;6.914;2023-04-24T02:47:35;6.63;;;4.90;;
52724;SDS011;38621;52.830;6.914;2023-04-24T02:50:01;6.28;;;3.95;;
52724;SDS011;38621;52.830;6.914;2023-04-24T02:52:28;6.57;;;4.40;;
52724;SDS011;38621;52.830;6.914;2023-04-24T02:54:53;6.07;;;4.15;;
52724;SDS011;38621;52.830;6.914;2023-04-24T02:57:19;5.82;;;3.85;;
52724;SDS011;38621;52.830;6.914;2023-04-24T02:59:45;7.00;;;4.15;;
52724;SDS011;38621;52.830;6.914;2023-04-24T03:02:10;5.57;;;4.05;;
52724;SDS011;38621;52.830;6.914;2023-04-24T03:04:36;4.82;;;4.05;;
52724;SDS011;38621;52.830;6.914;2023-04-24T03:07:02;6.88;;;4.35;;
52724;SDS011;38621;52.830;6.914;2023-04-24T03:09:27;5.60;;;4.00;;
52724;SDS011;38621;52.830;6.914;2023-04-24T03:11:53;3.92;;;3.33;;
52724;SDS011;38621;52.830;6.914;2023-04-24T03:14:19;4.57;;;3.47;;
52724;SDS011;38621;52.830;6.914;2023-04-24T03:16:44;4.15;;;3.33;;
52724;SDS011;38621;52.830;6.914;2023-04-24T03:19:10;5.15;;;3.97;;
52724;SDS011;38621;52.830;6.914;2023-04-24T03:21:36;4.75;;;3.45;;
52724;SDS011;38621;52.830;6.914;2023-04-24T03:24:05;5.60;;;3.53;;
52724;SDS011;38621;52.830;6.914;2023-04-24T03:26:34;4.68;;;3.45;;
52724;SDS011;38621;52.830;6.914;2023-04-24T03:29:00;5.45;;;3.75;;
52724;SDS011;38621;52.830;6.914;2023-04-24T03:31:26;5.55;;;3.80;;
52724;SDS011;38621;52.830;6.914;2023-04-24T03:33:52;5.50;;;3.40;;
52724;SDS011;38621;52.830;6.914;2023-04-24T03:36:17;5.85;;;3.72;;
52724;SDS011;38621;52.830;6.914;2023-04-24T03:38:44;4.85;;;3.78;;
52724;SDS011;38621;52.830;6.914;2023-04-24T03:41:10;5.15;;;3.60;;
52724;SDS011;38621;52.830;6.914;2023-04-24T03:43:37;5.78;;;4.30;;
52724;SDS011;38621;52.830;6.914;2023-04-24T03:46:03;5.65;;;4.25;;
52724;SDS011;38621;52.830;6.914;2023-04-24T03:48:29;4.95;;;3.72;;
52724;SDS011;38621;52.830;6.914;2023-04-24T03:50:55;4.93;;;3.80;;
52724;SDS011;38621;52.830;6.914;2023-04-24T03:53:20;6.85;;;4.32;;
52724;SDS011;38621;52.830;6.914;2023-04-24T03:55:46;5.63;;;4.35;;
52724;SDS011;38621;52.830;6.914;2023-04-24T03:58:12;5.43;;;3.88;;
52724;SDS011;38621;52.830;6.914;2023-04-24T04:00:41;5.88;;;4.13;;
52724;SDS011;38621;52.830;6.914;2023-04-24T04:03:06;5.03;;;3.80;;
52724;SDS011;38621;52.830;6.914;2023-04-24T04:05:32;5.47;;;4.35;;
52724;SDS011;38621;52.830;6.914;2023-04-24T04:07:58;6.15;;;4.70;;
52724;SDS011;38621;52.830;6.914;2023-04-24T04:10:23;5.30;;;3.95;;
52724;SDS011;38621;52.830;6.914;2023-04-24T04:12:49;4.72;;;4.00;;
52724;SDS011;38621;52.830;6.914;2023-04-24T04:15:15;6.22;;;4.20;;
52724;SDS011;38621;52.830;6.914;2023-04-24T04:17:40;4.93;;;4.03;;
52724;SDS011;38621;52.830;6.914;2023-04-24T04:20:06;5.15;;;3.67;;
52724;SDS011;38621;52.830;6.914;2023-04-24T04:22:35;5.25;;;3.72;;
52724;SDS011;38621;52.830;6.914;2023-04-24T04:25:01;5.32;;;4.07;;
52724;SDS011;38621;52.830;6.914;2023-04-24T04:27:27;4.53;;;3.35;;
52724;SDS011;38621;52.830;6.914;2023-04-24T04:29:54;4.30;;;3.10;;
52724;SDS011;38621;52.830;6.914;2023-04-24T04:32:21;5.03;;;4.20;;
52724;SDS011;38621;52.830;6.914;2023-04-24T04:34:47;5.97;;;4.15;;
52724;SDS011;38621;52.830;6.914;2023-04-24T04:37:14;7.97;;;4.60;;
52724;SDS011;38621;52.830;6.914;2023-04-24T04:39:40;5.28;;;3.58;;
52724;SDS011;38621;52.830;6.914;2023-04-24T04:42:06;6.43;;;4.13;;
52724;SDS011;38621;52.830;6.914;2023-04-24T04:44:31;5.78;;;4.15;;
52724;SDS011;38621;52.830;6.914;2023-04-24T04:46:57;5.85;;;4.22;;
52724;SDS011;38621;52.830;6.914;2023-04-24T04:49:25;6.80;;;4.45;;
52724;SDS011;38621;52.830;6.914;2023-04-24T04:51:53;5.97;;;4.20;;
52724;SDS011;38621;52.830;6.914;2023-04-24T04:54:19;5.57;;;4.05;;
52724;SDS011;38621;52.830;6.914;2023-04-24T04:56:45;5.18;;;3.55;;
52724;SDS011;38621;52.830;6.914;2023-04-24T04:59:10;5.97;;;3.92;;
52724;SDS011;38621;52.830;6.914;2023-04-24T05:01:37;5.65;;;4.40;;
52724;SDS011;38621;52.830;6.914;2023-04-24T05:04:03;6.13;;;4.15;;
52724;SDS011;38621;52.830;6.914;2023-04-24T05:06:28;5.95;;;4.25;;
52724;SDS011;38621;52.830;6.914;2023-04-24T05:08:55;6.15;;;4.20;;
52724;SDS011;38621;52.830;6.914;2023-04-24T05:11:22;5.38;;;4.00;;
52724;SDS011;38621;52.830;6.914;2023-04-24T05:13:48;6.38;;;4.53;;
52724;SDS011;38621;52.830;6.914;2023-04-24T05:16:14;6.57;;;4.40;;
52724;SDS011;38621;52.830;6.914;2023-04-24T05:18:39;5.78;;;4.03;;
52724;SDS011;38621;52.830;6.914;2023-04-24T05:21:05;5.65;;;3.63;;
52724;SDS011;38621;52.830;6.914;2023-04-24T05:23:31;5.15;;;3.72;;
52724;SDS011;38621;52.830;6.914;2023-04-24T05:25:57;4.90;;;3.53;;
52724;SDS011;38621;52.830;6.914;2023-04-24T05:28:22;7.75;;;4.00;;
52724;SDS011;38621;52.830;6.914;2023-04-24T05:30:48;6.03;;;3.83;;
52724;SDS011;38621;52.830;6.914;2023-04-24T05:33:14;5.40;;;4.03;;
52724;SDS011;38621;52.830;6.914;2023-04-24T05:35:40;4.75;;;3.58;;
52724;SDS011;38621;52.830;6.914;2023-04-24T05:38:11;4.68;;;3.25;;
52724;SDS011;38621;52.830;6.914;2023-04-24T05:40:38;4.07;;;2.90;;
52724;SDS011;38621;52.830;6.914;2023-04-24T05:43:04;4.13;;;3.00;;
52724;SDS011;38621;52.830;6.914;2023-04-24T05:45:29;3.63;;;2.35;;
52724;SDS011;38621;52.830;6.914;2023-04-24T05:47:55;4.65;;;2.85;;
52724;SDS011;38621;52.830;6.914;2023-04-24T05:50:21;4.00;;;2.75;;
52724;SDS011;38621;52.830;6.914;2023-04-24T05:52:47;3.70;;;2.67;;
52724;SDS011;38621;52.830;6.914;2023-04-24T05:55:12;3.35;;;2.28;;
52724;SDS011;38621;52.830;6.914;2023-04-24T05:57:38;3.38;;;2.45;;
52724;SDS011;38621;52.830;6.914;2023-04-24T06:00:04;3.08;;;2.10;;
52724;SDS011;38621;52.830;6.914;2023-04-24T06:02:30;2.78;;;2.35;;
52724;SDS011;38621;52.830;6.914;2023-04-24T06:04:58;3.75;;;2.60;;
52724;SDS011;38621;52.830;6.914;2023-04-24T06:07:24;4.85;;;2.80;;
52724;SDS011;38621;52.830;6.914;2023-04-24T06:09:51;3.42;;;2.30;;
52724;SDS011;38621;52.830;6.914;2023-04-24T06:12:17;3.97;;;2.72;;
52724;SDS011;38621;52.830;6.914;2023-04-24T06:14:43;3.20;;;2.25;;
52724;SDS011;38621;52.830;6.914;2023-04-24T06:17:08;3.92;;;2.30;;
52724;SDS011;38621;52.830;6.914;2023-04-24T06:19:34;3.50;;;2.40;;
52724;SDS011;38621;52.830;6.914;2023-04-24T06:22:00;3.75;;;2.08;;
52724;SDS011;38621;52.830;6.914;2023-04-24T06:24:28;3.08;;;2.08;;
52724;SDS011;38621;52.830;6.914;2023-04-24T06:26:54;3.08;;;2.15;;
52724;SDS011;38621;52.830;6.914;2023-04-24T06:29:21;3.40;;;2.10;;
52724;SDS011;38621;52.830;6.914;2023-04-24T06:31:47;3.10;;;1.60;;
52724;SDS011;38621;52.830;6.914;2023-04-24T06:34:13;2.63;;;1.75;;
52724;SDS011;38621;52.830;6.914;2023-04-24T06:36:38;3.67;;;1.75;;
52724;SDS011;38621;52.830;6.914;2023-04-24T06:39:04;3.03;;;1.80;;
52724;SDS011;38621;52.830;6.914;2023-04-24T06:41:30;2.35;;;1.45;;
52724;SDS011;38621;52.830;6.914;2023-04-24T06:43:56;2.03;;;1.20;;
52724;SDS011;38621;52.830;6.914;2023-04-24T06:46:21;2.15;;;1.27;;
52724;SDS011;38621;52.830;6.914;2023-04-24T06:48:49;2.00;;;1.10;;
52724;SDS011;38621;52.830;6.914;2023-04-24T06:51:15;2.28;;;1.20;;
52724;SDS011;38621;52.830;6.914;2023-04-24T06:53:43;2.78;;;1.40;;
52724;SDS011;38621;52.830;6.914;2023-04-24T06:56:08;2.08;;;1.08;;
52724;SDS011;38621;52.830;6.914;2023-04-24T06:58:34;2.30;;;1.30;;
52724;SDS011;38621;52.830;6.914;2023-04-24T07:01:00;2.42;;;1.50;;
52724;SDS011;38621;52.830;6.914;2023-04-24T07:03:25;3.13;;;1.80;;
52724;SDS011;38621;52.830;6.914;2023-04-24T07:05:51;2.83;;;1.58;;
52724;SDS011;38621;52.830;6.914;2023-04-24T07:08:18;3.15;;;1.65;;
52724;SDS011;38621;52.830;6.914;2023-04-24T07:10:45;2.88;;;1.52;;
52724;SDS011;38621;52.830;6.914;2023-04-24T07:13:11;2.38;;;1.58;;
52724;SDS011;38621;52.830;6.914;2023-04-24T07:15:36;2.33;;;1.45;;
52724;SDS011;38621;52.830;6.914;2023-04-24T07:18:02;2.92;;;1.83;;
52724;SDS011;38621;52.830;6.914;2023-04-24T07:20:28;2.33;;;1.50;;
52724;SDS011;38621;52.830;6.914;2023-04-24T07:22:54;2.88;;;1.60;;
52724;SDS011;38621;52.830;6.914;2023-04-24T07:25:19;2.88;;;1.27;;
52724;SDS011;38621;52.830;6.914;2023-04-24T07:27:45;2.88;;;1.60;;
52724;SDS011;38621;52.830;6.914;2023-04-24T07:30:11;2.10;;;1.25;;
52724;SDS011;38621;52.830;6.914;2023-04-24T07:32:37;2.10;;;1.10;;
52724;SDS011;38621;52.830;6.914;2023-04-24T07:35:02;3.47;;;1.48;;
52724;SDS011;38621;52.830;6.914;2023-04-24T07:37:28;2.38;;;1.30;;
52724;SDS011;38621;52.830;6.914;2023-04-24T07:39:54;2.67;;;1.70;;
52724;SDS011;38621;52.830;6.914;2023-04-24T07:42:20;2.47;;;1.48;;
52724;SDS011;38621;52.830;6.914;2023-04-24T07:44:46;2.47;;;1.63;;
52724;SDS011;38621;52.830;6.914;2023-04-24T07:47:12;3.42;;;1.77;;
52724;SDS011;38621;52.830;6.914;2023-04-24T07:49:43;3.45;;;1.67;;
52724;SDS011;38621;52.830;6.914;2023-04-24T07:52:09;2.50;;;1.50;;
52724;SDS011;38621;52.830;6.914;2023-04-24T07:54:35;3.45;;;1.65;;
52724;SDS011;38621;52.830;6.914;2023-04-24T07:57:02;2.90;;;1.77;;
52724;SDS011;38621;52.830;6.914;2023-04-24T07:59:28;2.90;;;1.65;;
52724;SDS011;38621;52.830;6.914;2023-04-24T08:01:54;4.32;;;1.58;;
52724;SDS011;38621;52.830;6.914;2023-04-24T08:04:19;2.47;;;1.45;;
52724;SDS011;38621;52.830;6.914;2023-04-24T08:06:46;3.35;;;1.75;;
52724;SDS011;38621;52.830;6.914;2023-04-24T08:09:13;4.75;;;2.35;;
52724;SDS011;38621;52.830;6.914;2023-04-24T08:11:38;2.78;;;1.58;;
52724;SDS011;38621;52.830;6.914;2023-04-24T08:14:04;3.17;;;1.70;;
52724;SDS011;38621;52.830;6.914;2023-04-24T08:16:30;2.85;;;1.48;;
52724;SDS011;38621;52.830;6.914;2023-04-24T08:18:57;2.35;;;1.40;;
52724;SDS011;38621;52.830;6.914;2023-04-24T08:21:24;2.40;;;1.42;;
52724;SDS011;38621;52.830;6.914;2023-04-24T08:23:52;3.25;;;1.55;;
52724;SDS011;38621;52.830;6.914;2023-04-24T08:26:18;3.30;;;1.65;;
52724;SDS011;38621;52.830;6.914;2023-04-24T08:28:43;2.50;;;1.70;;
52724;SDS011;38621;52.830;6.914;2023-04-24T08:31:09;3.00;;;1.52;;
52724;SDS011;38621;52.830;6.914;2023-04-24T08:33:35;4.70;;;1.90;;
52724;SDS011;38621;52.830;6.914;2023-04-24T08:36:04;2.90;;;1.60;;
52724;SDS011;38621;52.830;6.914;2023-04-24T08:38:30;2.83;;;1.55;;
52724;SDS011;38621;52.830;6.914;2023-04-24T08:40:58;2.20;;;1.13;;
52724;SDS011;38621;52.830;6.914;2023-04-24T08:43:24;2.45;;;1.30;;
52724;SDS011;38621;52.830;6.914;2023-04-24T08:45:51;3.08;;;1.25;;
52724;SDS011;38621;52.830;6.914;2023-04-24T08:48:17;3.80;;;1.38;;
52724;SDS011;38621;52.830;6.914;2023-04-24T08:50:44;3.50;;;1.20;;
52724;SDS011;38621;52.830;6.914;2023-04-24T08:53:10;2.35;;;1.40;;
52724;SDS011;38621;52.830;6.914;2023-04-24T08:55:37;3.50;;;1.42;;
52724;SDS011;38621;52.830;6.914;2023-04-24T08:58:02;4.82;;;1.80;;
52724;SDS011;38621;52.830;6.914;2023-04-24T09:00:29;3.55;;;1.80;;
52724;SDS011;38621;52.830;6.914;2023-04-24T09:02:55;3.33;;;2.15;;
52724;SDS011;38621;52.830;6.914;2023-04-24T09:05:22;3.67;;;2.35;;
52724;SDS011;38621;52.830;6.914;2023-04-24T09:07:53;7.18;;;3.30;;
52724;SDS011;38621;52.830;6.914;2023-04-24T09:10:23;8.35;;;3.45;;
52724;SDS011;38621;52.830;6.914;2023-04-24T09:12:50;7.65;;;4.30;;
52724;SDS011;38621;52.830;6.914;2023-04-24T09:15:18;7.00;;;4.07;;
52724;SDS011;38621;52.830;6.914;2023-04-24T09:17:45;8.07;;;4.88;;
52724;SDS011;38621;52.830;6.914;2023-04-24T09:20:11;8.90;;;5.03;;
52724;SDS011;38621;52.830;6.914;2023-04-24T09:22:37;9.98;;;5.28;;
52724;SDS011;38621;52.830;6.914;2023-04-24T09:25:03;10.73;;;4.97;;
52724;SDS011;38621;52.830;6.914;2023-04-24T09:27:34;9.05;;;4.75;;
52724;SDS011;38621;52.830;6.914;2023-04-24T09:30:00;9.20;;;4.53;;
52724;SDS011;38621;52.830;6.914;2023-04-24T09:32:27;9.75;;;5.03;;
52724;SDS011;38621;52.830;6.914;2023-04-24T09:35:05;11.05;;;5.53;;
52724;SDS011;38621;52.830;6.914;2023-04-24T09:37:35;10.63;;;5.78;;
52724;SDS011;38621;52.830;6.914;2023-04-24T09:42:40;8.70;;;5.15;;
52724;SDS011;38621;52.830;6.914;2023-04-24T09:45:10;8.05;;;5.57;;
52724;SDS011;38621;52.830;6.914;2023-04-24T09:47:39;10.35;;;6.18;;
52724;SDS011;38621;52.830;6.914;2023-04-24T09:50:15;11.55;;;6.70;;
52724;SDS011;38621;52.830;6.914;2023-04-24T09:52:42;11.63;;;7.25;;
52724;SDS011;38621;52.830;6.914;2023-04-24T09:55:27;12.73;;;6.95;;
52724;SDS011;38621;52.830;6.914;2023-04-24T09:57:59;15.02;;;7.85;;
52724;SDS011;38621;52.830;6.914;2023-04-24T10:00:27;13.00;;;8.60;;
52724;SDS011;38621;52.830;6.914;2023-04-24T10:02:55;14.60;;;8.43;;
52724;SDS011;38621;52.830;6.914;2023-04-24T10:05:26;15.05;;;8.85;;
52724;SDS011;38621;52.830;6.914;2023-04-24T10:08:01;13.02;;;8.20;;
52724;SDS011;38621;52.830;6.914;2023-04-24T10:10:31;15.52;;;8.20;;
52724;SDS011;38621;52.830;6.914;2023-04-24T10:12:57;13.95;;;8.20;;
52724;SDS011;38621;52.830;6.914;2023-04-24T10:15:25;13.93;;;8.02;;
52724;SDS011;38621;52.830;6.914;2023-04-24T10:17:51;11.35;;;6.72;;
52724;SDS011;38621;52.830;6.914;2023-04-24T10:20:21;13.00;;;7.10;;
52724;SDS011;38621;52.830;6.914;2023-04-24T10:22:49;10.70;;;6.60;;
52724;SDS011;38621;52.830;6.914;2023-04-24T10:25:16;16.05;;;7.90;;
52724;SDS011;38621;52.830;6.914;2023-04-24T10:27:48;12.07;;;6.47;;
52724;SDS011;38621;52.830;6.914;2023-04-24T10:30:15;10.60;;;5.93;;
52724;SDS011;38621;52.830;6.914;2023-04-24T10:32:41;8.82;;;5.55;;
52724;SDS011;38621;52.830;6.914;2023-04-24T10:35:08;8.70;;;5.30;;
52724;SDS011;38621;52.830;6.914;2023-04-24T10:37:38;10.13;;;5.22;;
52724;SDS011;38621;52.830;6.914;2023-04-24T10:40:11;13.02;;;6.70;;
52724;SDS011;38621;52.830;6.914;2023-04-24T10:42:40;13.07;;;6.55;;
52724;SDS011;38621;52.830;6.914;2023-04-24T10:45:15;9.38;;;5.90;;
52724;SDS011;38621;52.830;6.914;2023-04-24T10:50:20;11.82;;;6.60;;
52724;SDS011;38621;52.830;6.914;2023-04-24T10:52:47;8.32;;;5.50;;
52724;SDS011;38621;52.830;6.914;2023-04-24T10:55:15;9.30;;;5.55;;
52724;SDS011;38621;52.830;6.914;2023-04-24T11:00:29;7.80;;;4.30;;
52724;SDS011;38621;52.830;6.914;2023-04-24T11:02:55;11.23;;;4.97;;
52724;SDS011;38621;52.830;6.914;2023-04-24T11:05:22;7.38;;;4.25;;
52724;SDS011;38621;52.830;6.914;2023-04-24T11:08:24;10.10;;;4.32;;
52724;SDS011;38621;52.830;6.914;2023-04-24T11:11:12;6.50;;;3.88;;
52724;SDS011;38621;52.830;6.914;2023-04-24T11:16:26;6.82;;;3.55;;
52724;SDS011;38621;52.830;6.914;2023-04-24T11:19:01;5.38;;;2.80;;
52724;SDS011;38621;52.830;6.914;2023-04-24T11:24:26;6.57;;;2.40;;
52724;SDS011;38621;52.830;6.914;2023-04-24T11:27:07;5.40;;;2.70;;
52724;SDS011;38621;52.830;6.914;2023-04-24T11:32:35;9.70;;;2.40;;
52724;SDS011;38621;52.830;6.914;2023-04-24T11:35:03;6.80;;;2.80;;
52724;SDS011;38621;52.830;6.914;2023-04-24T11:37:37;5.90;;;2.88;;
52724;SDS011;38621;52.830;6.914;2023-04-24T11:40:04;8.77;;;3.20;;
52724;SDS011;38621;52.830;6.914;2023-04-24T11:42:36;7.13;;;2.50;;
52724;SDS011;38621;52.830;6.914;2023-04-24T11:45:10;6.22;;;2.40;;
52724;SDS011;38621;52.830;6.914;2023-04-24T11:47:40;5.32;;;2.60;;
52724;SDS011;38621;52.830;6.914;2023-04-24T11:50:08;3.45;;;1.90;;
52724;SDS011;38621;52.830;6.914;2023-04-24T11:52:48;6.40;;;2.40;;
52724;SDS011;38621;52.830;6.914;2023-04-24T11:57:44;3.28;;;1.50;;
52724;SDS011;38621;52.830;6.914;2023-04-24T12:00:31;4.97;;;2.17;;
52724;SDS011;38621;52.830;6.914;2023-04-24T12:05:32;8.32;;;2.58;;
52724;SDS011;38621;52.830;6.914;2023-04-24T12:07:57;5.38;;;1.98;;
52724;SDS011;38621;52.830;6.914;2023-04-24T12:10:24;7.22;;;2.28;;
52724;SDS011;38621;52.830;6.914;2023-04-24T12:12:51;4.78;;;1.65;;
52724;SDS011;38621;52.830;6.914;2023-04-24T12:15:17;5.15;;;2.42;;
52724;SDS011;38621;52.830;6.914;2023-04-24T12:17:44;6.07;;;2.05;;
52724;SDS011;38621;52.830;6.914;2023-04-24T12:20:10;6.60;;;2.00;;
52724;SDS011;38621;52.830;6.914;2023-04-24T12:22:47;2.85;;;1.80;;
52724;SDS011;38621;52.830;6.914;2023-04-24T12:25:20;4.95;;;1.60;;
52724;SDS011;38621;52.830;6.914;2023-04-24T12:31:09;4.38;;;1.58;;
52724;SDS011;38621;52.830;6.914;2023-04-24T12:33:31;4.03;;;2.00;;
52724;SDS011;38621;52.830;6.914;2023-04-24T12:35:58;4.22;;;1.40;;
52724;SDS011;38621;52.830;6.914;2023-04-24T12:38:25;2.80;;;1.40;;
52724;SDS011;38621;52.830;6.914;2023-04-24T12:41:05;3.10;;;1.23;;
52724;SDS011;38621;52.830;6.914;2023-04-24T12:43:32;3.80;;;1.30;;
52724;SDS011;38621;52.830;6.914;2023-04-24T12:45:58;3.28;;;1.40;;
52724;SDS011;38621;52.830;6.914;2023-04-24T12:48:27;3.63;;;1.77;;
52724;SDS011;38621;52.830;6.914;2023-04-24T12:50:53;2.65;;;1.42;;
52724;SDS011;38621;52.830;6.914;2023-04-24T12:53:20;5.30;;;1.50;;
52724;SDS011;38621;52.830;6.914;2023-04-24T12:55:46;3.53;;;1.52;;
52724;SDS011;38621;52.830;6.914;2023-04-24T12:58:17;5.32;;;1.55;;
52724;SDS011;38621;52.830;6.914;2023-04-24T13:00:47;3.40;;;1.48;;
52724;SDS011;38621;52.830;6.914;2023-04-24T13:03:13;3.97;;;1.60;;
52724;SDS011;38621;52.830;6.914;2023-04-24T13:05:39;3.88;;;1.10;;
52724;SDS011;38621;52.830;6.914;2023-04-24T13:08:05;4.03;;;1.80;;
52724;SDS011;38621;52.830;6.914;2023-04-24T13:10:31;2.80;;;1.30;;
52724;SDS011;38621;52.830;6.914;2023-04-24T13:12:57;4.88;;;1.40;;
52724;SDS011;38621;52.830;6.914;2023-04-24T13:15:22;4.40;;;1.40;;
52724;SDS011;38621;52.830;6.914;2023-04-24T13:17:49;2.80;;;1.17;;
52724;SDS011;38621;52.830;6.914;2023-04-24T13:20:15;4.10;;;1.20;;
52724;SDS011;38621;52.830;6.914;2023-04-24T13:22:41;2.40;;;0.90;;
52724;SDS011;38621;52.830;6.914;2023-04-24T13:25:07;3.10;;;1.30;;
52724;SDS011;38621;52.830;6.914;2023-04-24T13:27:33;2.20;;;0.65;;
52724;SDS011;38621;52.830;6.914;2023-04-24T13:29:59;2.63;;;0.80;;
52724;SDS011;38621;52.830;6.914;2023-04-24T13:32:25;1.73;;;0.90;;
52724;SDS011;38621;52.830;6.914;2023-04-24T13:34:51;1.67;;;0.80;;
52724;SDS011;38621;52.830;6.914;2023-04-24T13:37:16;1.23;;;0.70;;
52724;SDS011;38621;52.830;6.914;2023-04-24T13:39:42;2.63;;;0.90;;
52724;SDS011;38621;52.830;6.914;2023-04-24T13:42:08;2.25;;;0.90;;
52724;SDS011;38621;52.830;6.914;2023-04-24T13:44:34;2.10;;;0.85;;
52724;SDS011;38621;52.830;6.914;2023-04-24T13:46:59;3.03;;;1.00;;
52724;SDS011;38621;52.830;6.914;2023-04-24T13:49:25;2.20;;;1.10;;
52724;SDS011;38621;52.830;6.914;2023-04-24T13:51:52;3.80;;;1.10;;
52724;SDS011;38621;52.830;6.914;2023-04-24T13:54:19;3.92;;;1.00;;
52724;SDS011;38621;52.830;6.914;2023-04-24T13:56:44;2.42;;;0.95;;
52724;SDS011;38621;52.830;6.914;2023-04-24T13:59:12;2.25;;;1.00;;
52724;SDS011;38621;52.830;6.914;2023-04-24T14:01:38;4.07;;;1.15;;
52724;SDS011;38621;52.830;6.914;2023-04-24T14:04:04;3.45;;;0.90;;
52724;SDS011;38621;52.830;6.914;2023-04-24T14:06:30;5.35;;;1.27;;
52724;SDS011;38621;52.830;6.914;2023-04-24T14:08:56;4.78;;;0.88;;
52724;SDS011;38621;52.830;6.914;2023-04-24T14:11:22;2.22;;;0.90;;
52724;SDS011;38621;52.830;6.914;2023-04-24T14:13:47;2.50;;;0.90;;
52724;SDS011;38621;52.830;6.914;2023-04-24T14:16:14;3.03;;;0.70;;
52724;SDS011;38621;52.830;6.914;2023-04-24T14:18:39;2.80;;;0.70;;
52724;SDS011;38621;52.830;6.914;2023-04-24T14:21:05;3.08;;;0.80;;
52724;SDS011;38621;52.830;6.914;2023-04-24T14:23:31;2.72;;;1.10;;
52724;SDS011;38621;52.830;6.914;2023-04-24T14:25:57;2.42;;;0.80;;
52724;SDS011;38621;52.830;6.914;2023-04-24T14:28:24;1.70;;;0.80;;
52724;SDS011;38621;52.830;6.914;2023-04-24T14:30:51;3.55;;;0.93;;
52724;SDS011;38621;52.830;6.914;2023-04-24T14:33:16;2.58;;;1.05;;
52724;SDS011;38621;52.830;6.914;2023-04-24T14:35:42;2.95;;;1.00;;
52724;SDS011;38621;52.830;6.914;2023-04-24T14:38:08;4.57;;;1.63;;
52724;SDS011;38621;52.830;6.914;2023-04-24T14:40:35;3.88;;;0.90;;
52724;SDS011;38621;52.830;6.914;2023-04-24T14:43:01;3.58;;;0.90;;
52724;SDS011;38621;52.830;6.914;2023-04-24T14:45:27;3.53;;;1.10;;
52724;SDS011;38621;52.830;6.914;2023-04-24T14:47:53;4.03;;;1.50;;
52724;SDS011;38621;52.830;6.914;2023-04-24T14:50:19;2.25;;;0.95;;
52724;SDS011;38621;52.830;6.914;2023-04-24T14:52:44;3.25;;;1.17;;
52724;SDS011;38621;52.830;6.914;2023-04-24T14:55:11;4.15;;;0.95;;
52724;SDS011;38621;52.830;6.914;2023-04-24T14:57:37;2.42;;;0.95;;
52724;SDS011;38621;52.830;6.914;2023-04-24T15:00:03;5.53;;;1.42;;
52724;SDS011;38621;52.830;6.914;2023-04-24T15:02:32;3.15;;;1.38;;
52724;SDS011;38621;52.830;6.914;2023-04-24T15:04:58;4.60;;;1.75;;
52724;SDS011;38621;52.830;6.914;2023-04-24T15:07:24;5.18;;;1.58;;
52724;SDS011;38621;52.830;6.914;2023-04-24T15:09:50;5.03;;;1.60;;